• Join FlightAware (Why Join?)
  • Login
  • US Flag 
07:03AM EST


 

Airport Tracker/Info


-or-


 

Live Flight TrackerFlight Track Log ✈ N960DL ✈ 21-Jun-2013 ✈ KDSM - KATL

Flight Track Log - Related Links

Times and Time Zones

All times are in EDT time to prevent confusion due to time zone crossing. See the N960DL flight status page for this flight to view local times or setup timezone preferences in your user account.

Time Position Orientation Groundspeed Altitude Reporting Facility
EDT Latitude Longitude Course Direction KTS MPH feet Rate Location/Type
10:56AM 41.5324 -93.6626 168° South  Level FlightAware Approximate
10:57AM 41.4225 -93.6225 143° Southeast  Level FlightAware Approximate
10:58AM 41.3360 -93.5265 138° Southeast  Level FlightAware Approximate
10:59AM 41.3196 -93.5069 138° Southeast  Level FlightAware Approximate
11:00AM 41.3032 -93.4871 138° Southeast  Level FlightAware Approximate
11:01AM 41.2960 -93.4619 138° Southeast  Level FlightAware Approximate
11:02AM 41.2795 -93.4421 138° Southeast  Level FlightAware Approximate
11:03AM 41.1965 -93.3407 136° Southeast  Level FlightAware Approximate
11:04AM 41.1156 -93.2366 136° Southeast  Level FlightAware Approximate
11:05AM 41.0339 -93.1336 137° Southeast  Level FlightAware Approximate
11:06AM 40.9519 -93.0311 137° Southeast  Level FlightAware Approximate
11:07AM 40.8699 -92.9288 137° Southeast  Level FlightAware Approximate
11:08AM 40.7871 -92.8278 138° Southeast  Level FlightAware Approximate
11:09AM 40.7708 -92.8083 138° Southeast  Level FlightAware Approximate
11:10AM 40.7546 -92.7888 138° Southeast  Level FlightAware Approximate
11:11AM 40.7395 -92.7676 131° Southeast  Level FlightAware Approximate
11:12AM 40.7250 -92.7458 131° Southeast  Level FlightAware Approximate
11:13AM 40.6492 -92.6377 135° Southeast  Level FlightAware Approximate
11:14AM 40.5623 -92.5456 143° Southeast  Level FlightAware Approximate
11:15AM 40.4835 -92.4417 134° Southeast  Level FlightAware Approximate
11:16AM 40.4058 -92.3363 136° Southeast  Level FlightAware Approximate
11:17AM 40.3224 -92.2390 143° Southeast  Level FlightAware Approximate
11:18AM 40.2375 -92.1444 134° Southeast  Level FlightAware Approximate
11:19AM 40.1568 -92.0433 137° Southeast  Level FlightAware Approximate
11:20AM 40.0751 -91.9436 137° Southeast  Level FlightAware Approximate
11:21AM 39.9973 -91.8392 137° Southeast  Level FlightAware Approximate
11:22AM 39.9158 -91.7396 137° Southeast  Level FlightAware Approximate
11:23AM 39.8345 -91.6397 137° Southeast  Level FlightAware Approximate
11:24AM 39.7534 -91.5398 137° Southeast  Level FlightAware Approximate
11:25AM 39.6722 -91.4401 137° Southeast  Level FlightAware Approximate
11:26AM 39.5902 -91.3415 137° Southeast  Level FlightAware Approximate
11:27AM 39.5082 -91.2432 137° Southeast  Level FlightAware Approximate
11:28AM 39.4260 -91.1451 137° Southeast  Level FlightAware Approximate
11:29AM 39.3438 -91.0473 137° Southeast  Level FlightAware Approximate
11:30AM 39.2615 -90.9497 137° Southeast  Level FlightAware Approximate
11:31AM 39.1791 -90.8523 137° Southeast  Level FlightAware Approximate
11:32AM 39.0966 -90.7552 138° Southeast  Level FlightAware Approximate
11:33AM 39.0140 -90.6583 138° Southeast  Level FlightAware Approximate
11:34AM 38.9314 -90.5616 138° Southeast  Level FlightAware Approximate
11:35AM 38.8488 -90.4650 132° Southeast  Level FlightAware Approximate
11:36AM 38.7746 -90.3578 132° Southeast  Level FlightAware Approximate
11:37AM 38.7003 -90.2509 132° Southeast  Level FlightAware Approximate
11:38AM 38.6259 -90.1442 132° Southeast  Level FlightAware Approximate
11:39AM 38.5519 -90.0371 131° Southeast  Level FlightAware Approximate
11:40AM 38.4786 -89.9294 131° Southeast  Level FlightAware Approximate
11:41AM 38.4051 -89.8220 131° Southeast  Level FlightAware Approximate
11:42AM 38.3316 -89.7147 131° Southeast  Level FlightAware Approximate
11:43AM 38.2579 -89.6077 131° Southeast  Level FlightAware Approximate
11:44AM 38.1842 -89.5009 131° Southeast  Level FlightAware Approximate
11:45AM 38.1104 -89.3943 131° Southeast  Level FlightAware Approximate
11:46AM 38.0364 -89.2879 131° Southeast  Level FlightAware Approximate
11:47AM 37.9624 -89.1817 131° Southeast  Level FlightAware Approximate
11:48AM 37.8883 -89.0758 132° Southeast  Level FlightAware Approximate
11:49AM 37.8141 -88.9700 132° Southeast  Level FlightAware Approximate
11:50AM 37.7385 -88.8660 133° Southeast  Level FlightAware Approximate
11:51AM 37.6626 -88.7624 133° Southeast  Level FlightAware Approximate
11:52AM 37.5882 -88.6572 130° Southeast  Level FlightAware Approximate
11:53AM 37.5141 -88.5518 132° Southeast  Level FlightAware Approximate
11:54AM 37.4398 -88.4467 132° Southeast  Level FlightAware Approximate
11:55AM 37.3653 -88.3418 132° Southeast  Level FlightAware Approximate
11:56AM 37.2908 -88.2372 132° Southeast  Level FlightAware Approximate
11:57AM 37.2158 -88.1331 132° Southeast  Level FlightAware Approximate
11:58AM 37.1408 -88.0293 132° Southeast  Level FlightAware Approximate
11:59AM 37.0655 -87.9258 133° Southeast  Level FlightAware Approximate
12:00PM 36.9897 -87.8231 133° Southeast  Level FlightAware Approximate
12:01PM 36.9138 -87.7205 133° Southeast  Level FlightAware Approximate
12:02PM 36.8378 -87.6181 133° Southeast  Level FlightAware Approximate
12:03PM 36.7617 -87.5160 133° Southeast  Level FlightAware Approximate
12:04PM 36.6855 -87.4141 133° Southeast  Level FlightAware Approximate
12:05PM 36.6093 -87.3123 133° Southeast  Level FlightAware Approximate
12:06PM 36.5338 -87.2098 132° Southeast  Level FlightAware Approximate
12:07PM 36.4583 -87.1073 132° Southeast  Level FlightAware Approximate
12:08PM 36.3828 -87.0051 133° Southeast  Level FlightAware Approximate
12:09PM 36.3057 -86.9047 134° Southeast  Level FlightAware Approximate
12:10PM 36.2282 -86.8049 134° Southeast  Level FlightAware Approximate
12:11PM 36.1506 -86.7054 134° Southeast  Level FlightAware Approximate
12:12PM 36.0602 -86.6252 147° Southeast  Level FlightAware Approximate
12:13PM 35.9662 -86.5506 147° Southeast  Level FlightAware Approximate
12:14PM 35.8721 -86.4761 147° Southeast  Level FlightAware Approximate
12:15PM 35.7780 -86.4019 147° Southeast  Level FlightAware Approximate
12:16PM 35.6854 -86.3250 145° Southeast  Level FlightAware Approximate
12:17PM 35.5941 -86.2458 145° Southeast  Level FlightAware Approximate
12:18PM 35.5028 -86.1668 145° Southeast  Level FlightAware Approximate
12:19PM 35.4060 -86.0994 148° Southeast  Level FlightAware Approximate
12:20PM 35.3874 -86.0851 148° Southeast  Level FlightAware Approximate
12:21PM 35.3687 -86.0707 148° Southeast  Level FlightAware Approximate
12:22PM 35.3501 -86.0564 148° Southeast  Level FlightAware Approximate
12:23PM 35.3315 -86.0420 148° Southeast  Level FlightAware Approximate
12:24PM 35.3129 -86.0277 148° Southeast  Level FlightAware Approximate
12:25PM 35.2942 -86.0134 148° Southeast  Level FlightAware Approximate
12:26PM 35.2756 -85.9991 148° Southeast  Level FlightAware Approximate
12:27PM 35.2569 -85.9848 148° Southeast  Level FlightAware Approximate
12:28PM 35.2383 -85.9705 148° Southeast  Level FlightAware Approximate
12:29PM 35.2198 -85.9558 147° Southeast  Level FlightAware Approximate
12:30PM 35.2014 -85.9411 147° Southeast  Level FlightAware Approximate
12:31PM 35.1830 -85.9264 147° Southeast  Level FlightAware Approximate
12:32PM 35.1646 -85.9116 147° Southeast  Level FlightAware Approximate
12:33PM 35.1462 -85.8969 147° Southeast  Level FlightAware Approximate
12:34PM 35.1278 -85.8822 147° Southeast  Level FlightAware Approximate
12:35PM 35.1094 -85.8674 147° Southeast  Level FlightAware Approximate
12:36PM 35.0910 -85.8527 147° Southeast  Level FlightAware Approximate
12:37PM 35.0726 -85.8380 147° Southeast  Level FlightAware Approximate
12:38PM 35.0551 -85.8217 141° Southeast  Level FlightAware Approximate
12:39PM 35.0381 -85.8047 141° Southeast  Level FlightAware Approximate
12:40PM 35.0210 -85.7877 141° Southeast  Level FlightAware Approximate
12:41PM 35.0040 -85.7707 141° Southeast  Level FlightAware Approximate
12:42PM 34.9870 -85.7537 141° Southeast  Level FlightAware Approximate
12:43PM 34.9688 -85.7387 147° Southeast  Level FlightAware Approximate
12:44PM 34.9503 -85.7242 147° Southeast  Level FlightAware Approximate
12:45PM 34.9317 -85.7098 147° Southeast  Level FlightAware Approximate
12:46PM 34.9132 -85.6954 147° Southeast  Level FlightAware Approximate
12:47PM 34.8946 -85.6809 147° Southeast  Level FlightAware Approximate
12:48PM 34.8761 -85.6665 147° Southeast  Level FlightAware Approximate
12:49PM 34.8574 -85.6520 147° Southeast  Level FlightAware Approximate
12:50PM 34.8388 -85.6376 147° Southeast  Level FlightAware Approximate
12:51PM 34.8202 -85.6228 147° Southeast  Level FlightAware Approximate
12:52PM 34.8018 -85.6079 147° Southeast  Level FlightAware Approximate
12:53PM 34.7833 -85.5931 147° Southeast  Level FlightAware Approximate
12:54PM 34.7648 -85.5782 147° Southeast  Level FlightAware Approximate
12:55PM 34.7464 -85.5634 147° Southeast  Level FlightAware Approximate
12:56PM 34.7279 -85.5486 147° Southeast  Level FlightAware Approximate
12:57PM 34.7094 -85.5338 147° Southeast  Level FlightAware Approximate
12:58PM 34.6909 -85.5190 147° Southeast  Level FlightAware Approximate
12:59PM 34.6725 -85.5042 147° Southeast  Level FlightAware Approximate
01:00PM 34.6540 -85.4893 147° Southeast  Level FlightAware Approximate
01:01PM 34.6355 -85.4746 147° Southeast  Level FlightAware Approximate
01:02PM 34.6170 -85.4598 147° Southeast  Level FlightAware Approximate
01:03PM 34.5985 -85.4450 147° Southeast  Level FlightAware Approximate
01:04PM 34.5800 -85.4302 147° Southeast  Level FlightAware Approximate
01:05PM 34.5616 -85.4155 147° Southeast  Level FlightAware Approximate
01:06PM 34.5431 -85.4007 147° Southeast  Level FlightAware Approximate
01:07PM 34.5246 -85.3859 147° Southeast  Level FlightAware Approximate
01:08PM 34.5061 -85.3712 147° Southeast  Level FlightAware Approximate
01:09PM 34.4876 -85.3565 147° Southeast  Level FlightAware Approximate
01:10PM 34.4691 -85.3417 147° Southeast  Level FlightAware Approximate
01:11PM 34.4506 -85.3270 147° Southeast  Level FlightAware Approximate
01:12PM 34.4321 -85.3123 147° Southeast  Level FlightAware Approximate
01:13PM 34.4135 -85.2977 148° Southeast  Level FlightAware Approximate
01:14PM 34.3947 -85.2835 148° Southeast  Level FlightAware Approximate
01:15PM 34.3759 -85.2694 148° Southeast  Level FlightAware Approximate
01:16PM 34.3571 -85.2553 148° Southeast  Level FlightAware Approximate
01:17PM 34.3376 -85.2426 154° Southeast  Level FlightAware Approximate
01:18PM 34.3178 -85.2307 154° Southeast  Level FlightAware Approximate
01:19PM 34.2980 -85.2188 154° Southeast  Level FlightAware Approximate
01:20PM 34.2789 -85.2074 154° Southeast  Level FlightAware Approximate
01:21PM 34.2602 -85.1953 149° Southeast  Level FlightAware Approximate
01:22PM 34.2419 -85.1823 149° Southeast  Level FlightAware Approximate
01:23PM 34.2235 -85.1692 149° Southeast  Level FlightAware Approximate
01:24PM 34.2052 -85.1561 149° Southeast  Level FlightAware Approximate
01:25PM 34.1869 -85.1430 149° Southeast  Level FlightAware Approximate
01:26PM 34.1686 -85.1300 149° Southeast  Level FlightAware Approximate
01:27PM 34.1503 -85.1169 149° Southeast  Level FlightAware Approximate
01:28PM 34.1451 -85.0938 134° Southeast  Level FlightAware Approximate
01:29PM 34.1303 -85.0753 134° Southeast  Level FlightAware Approximate
01:30PM 34.1155 -85.0569 134° Southeast  Level FlightAware Approximate
01:31PM 34.1007 -85.0384 134° Southeast  Level FlightAware Approximate
01:32PM 34.0860 -85.0200 134° Southeast  Level FlightAware Approximate
01:33PM 34.0718 -85.0008 131° Southeast  Level FlightAware Approximate
01:34PM 34.0578 -84.9815 131° Southeast  Level FlightAware Approximate
01:35PM 34.0438 -84.9622 131° Southeast  Level FlightAware Approximate
01:36PM 34.0298 -84.9429 131° Southeast  Level FlightAware Approximate
01:37PM 34.0158 -84.9236 131° Southeast  Level FlightAware Approximate
01:38PM 34.0017 -84.9043 131° Southeast  Level FlightAware Approximate
01:39PM 33.9877 -84.8851 131° Southeast  Level FlightAware Approximate
01:40PM 33.9737 -84.8658 131° Southeast  Level FlightAware Approximate
01:41PM 33.9596 -84.8465 131° Southeast  Level FlightAware Approximate
01:42PM 33.9452 -84.8277 136° Southeast  Level FlightAware Approximate
01:43PM 33.9299 -84.8099 136° Southeast  Level FlightAware Approximate
01:44PM 33.9147 -84.7921 136° Southeast  Level FlightAware Approximate
01:45PM 33.8994 -84.7742 136° Southeast  Level FlightAware Approximate
01:46PM 33.8841 -84.7564 136° Southeast  Level FlightAware Approximate
01:47PM 33.8688 -84.7386 136° Southeast  Level FlightAware Approximate
01:48PM 33.8059 -84.6504 129° Southeast  Level FlightAware Approximate
01:49PM 33.7442 -84.5608 140° Southeast  Level FlightAware Approximate
01:50PM 33.6730 -84.4827 126° Southeast  Level FlightAware Approximate
01:51PM 33.6367 -84.4279 North  Level Estimated
01:52PM 33.6367 -84.4279 North  Level Estimated
01:53PM 33.6367 -84.4279 North  Level Estimated
01:54PM 33.6367 -84.4279 North  Level Estimated
01:55PM 33.6367 -84.4279 North  Level Estimated
01:56PM 33.6367 -84.4279 North  Level Estimated
01:57PM 33.6367 -84.4279 North  Level Estimated
01:58PM 33.6367 -84.4279 North  Level Estimated
01:59PM 33.6367 -84.4279 North  Level Estimated
02:00PM 33.6367 -84.4279 North  Level Estimated
02:01PM 33.6367 -84.4279 North  Level Estimated
02:02PM 33.6367 -84.4279 North  Level Estimated
02:02PM 41.4906 -93.5769 North 192 221 3,400  Level Minneapolis Center
02:03PM 41.4156 -93.5039 144° Southeast 281 323 6,800 2,820 Climbing Minneapolis Center
02:04PM 41.3777 -93.4497 North  Level Estimated
02:04PM 41.3456 -93.4658 158° South 273 314 9,800  Level Minneapolis Center
02:05PM 41.2994 -93.3434 North  Level Estimated
02:05PM 41.2694 -93.4281 160° South 297 342 10,600  Level Minneapolis Center
02:06PM 41.2211 -93.2374 North  Level Estimated
02:06PM 41.1739 -93.3153 138° Southeast 362 417 13,300  Level Minneapolis Center
02:07PM 41.1426 -93.1316 North  Level Estimated
02:07PM 41.0972 -93.2139 135° Southeast 387 445 16,600  Level Minneapolis Center
02:08PM 41.0217 -93.1169 136° Southeast 384 442 19,000 2,160 Climbing Minneapolis Center
02:09PM 40.9614 -93.0375 135° Southeast 382 440 20,500 1,620 Climbing Chicago Center
02:10PM 40.8897 -92.9281 131° Southeast 388 447 22,000 1,200 Climbing Chicago Center
02:11PM 40.8128 -92.8164 132° Southeast 404 465 23,100 1,260 Climbing Chicago Center
02:13PM 40.6328 -92.6242 141° Southeast 425 489 26,000 1,500 Climbing Chicago Center
02:14PM 40.5292 -92.4914 136° Southeast 434 499 27,900 1,380 Climbing Chicago Center
02:15PM 40.4392 -92.3797 137° Southeast 438 504 28,900 1,140 Climbing Chicago Center
02:16PM 40.3469 -92.2653 137° Southeast 447 514 30,300 1,320 Climbing Chicago Center
02:17PM 40.2564 -92.1558 137° Southeast 444 511 31,700 1,020 Climbing Kansas City Center
02:18PM 40.1669 -92.0467 137° Southeast 442 509 32,500 600 Climbing Kansas City Center
02:19PM 40.0797 -91.9389 137° Southeast 437 503 33,000 240 Climbing Kansas City Center
02:20PM 39.9775 -91.8136 137° Southeast 426 490 33,000  Level Kansas City Center
02:21PM 39.8897 -91.7072 137° Southeast 431 496 33,000  Level Kansas City Center
02:23PM 39.8039 -91.6008 136° Southeast 430 495 33,000  Level Kansas City Center
02:24PM 39.7169 -91.4967 137° Southeast 429 494 33,000  Level Kansas City Center
02:25PM 39.6325 -91.3892 136° Southeast 429 494 33,000  Level Kansas City Center
02:26PM 39.5361 -91.2717 137° Southeast 429 494 33,000  Level Kansas City Center
02:27PM 39.4492 -91.1667 137° Southeast 428 493 33,000  Level Kansas City Center
02:28PM 39.3611 -91.0617 137° Southeast 430 495 33,000  Level Kansas City Center
02:29PM 39.2539 -90.9369 138° Southeast 432 497 33,000  Level Kansas City Center
02:30PM 39.1653 -90.8317 137° Southeast 433 498 33,000  Level Kansas City Center
02:31PM 39.0761 -90.7275 138° Southeast 432 497 33,000  Level Kansas City Center
02:32PM 38.9875 -90.6261 138° Southeast 429 494 33,000  Level Kansas City Center
02:33PM 38.8906 -90.5117 137° Southeast 432 497 33,000  Level Kansas City Center
02:34PM 38.8072 -90.3975 133° Southeast 439 505 33,000  Level Kansas City Center
02:35PM 38.7217 -90.2789 133° Southeast 456 525 33,000  Level Kansas City Center
02:36PM 38.6456 -90.1581 129° Southeast 455 524 33,000  Level Kansas City Center
02:37PM 38.5489 -90.0181 131° Southeast 442 509 33,000  Level Kansas City Center
02:38PM 38.4672 -89.8997 131° Southeast 443 510 33,000  Level Kansas City Center
02:39PM 38.3864 -89.7797 131° Southeast 445 512 33,000  Level Kansas City Center
02:40PM 38.2978 -89.6494 131° Southeast 449 517 33,000  Level Kansas City Center
02:41PM 38.2156 -89.5306 131° Southeast 448 516 33,000  Level Kansas City Center
02:42PM 38.1261 -89.4033 132° Southeast 448 516 33,000  Level Kansas City Center
02:43PM 38.0422 -89.2844 132° Southeast 451 519 33,000  Level Kansas City Center
02:45PM 37.9422 -89.1459 132° Southeast  Level FlightAware Approximate
02:45PM 37.8717 -89.0433 132° Southeast 453 521 33,000  Level Kansas City Center
02:46PM 37.7814 -88.9172 132° Southeast 453 521 33,000  Level Kansas City Center
02:47PM 37.6964 -88.7958 131° Southeast 457 526 33,000  Level Kansas City Center
02:48PM 37.6031 -88.6686 133° Southeast 450 518 33,000  Level Kansas City Center
02:49PM 37.5194 -88.5508 132° Southeast 449 517 33,000  Level Kansas City Center
02:50PM 37.4408 -88.4442 133° Southeast 454 522 33,000  Level Kansas City Center
02:51PM 37.3350 -88.2978 132° Southeast 463 533 33,000  Level Kansas City Center
02:52PM 37.2458 -88.1742 132° Southeast 470 541 33,000  Level Kansas City Center
02:54PM 37.1564 -88.0511 132° Southeast 474 545 33,000  Level Kansas City Center
02:55PM 37.0664 -87.9289 133° Southeast 470 541 33,000  Level Memphis Center
02:56PM 36.9700 -87.7967 132° Southeast 464 534 33,000  Level Memphis Center
02:57PM 36.8700 -87.6961 141° Southeast 459 528 33,000  Level Memphis Center
02:58PM 36.7439 -87.6461 162° South 464 534 33,000  Level Memphis Center
02:59PM 36.6217 -87.5828 157° South 469 540 33,000  Level Memphis Center
03:00PM 36.5214 -87.4908 144° Southeast 458 527 33,000  Level Memphis Center
03:01PM 36.4375 -87.3750 132° Southeast 452 520 33,000  Level Memphis Center
03:02PM 36.3408 -87.2653 138° Southeast 452 520 33,000  Level Memphis Center
03:03PM 36.2467 -87.1581 137° Southeast 458 527 33,000  Level Memphis Center
03:04PM 36.1519 -87.0489 137° Southeast 458 527 33,000  Level Memphis Center
03:05PM 36.0572 -86.9397 137° Southeast 458 527 33,000  Level Memphis Center
03:06PM 35.9625 -86.8308 137° Southeast 458 527 33,000 -240 Level Memphis Center
03:08PM 35.7439 -86.5947 139° Southeast 453 521 32,200 -540 Descending Atlanta Center
03:09PM 35.6372 -86.5072 146° Southeast 453 521 31,200 -1,080 Descending Atlanta Center
03:10PM 35.5203 -86.4117 146° Southeast 453 521 30,100 -1,140 Descending Atlanta Center
03:11PM 35.4092 -86.3269 148° Southeast 469 540 29,000 -600 Descending Atlanta Center
03:12PM 35.2872 -86.2625 157° South 469 540 29,000  Level Atlanta Center
03:13PM 35.1922 -86.2067 154° Southeast 476 548 29,000  Level Atlanta Center
03:14PM 35.0792 -86.1047 144° Southeast 471 542 29,000  Level Atlanta Center
03:15PM 34.9869 -85.9986 137° Southeast 463 533 29,000 -480 Level Atlanta Center
03:16PM 34.8928 -85.8900 137° Southeast 463 533 28,100 -1,500 Descending Atlanta Center
03:17PM 34.7942 -85.7839 139° Southeast 463 533 26,100 -2,040 Descending Atlanta Center
03:18PM 34.6953 -85.6783 139° Southeast 468 539 24,100 -1,800 Descending Atlanta Center
03:19PM 34.5986 -85.5731 138° Southeast 468 539 22,500 -1,800 Descending Atlanta Center
03:20PM 34.5122 -85.4808 139° Southeast 468 539 20,600 -2,340 Descending Atlanta Center
03:21PM 34.4153 -85.3758 138° Southeast 453 521 17,900 -2,820 Descending Atlanta Center
03:22PM 34.3139 -85.2861 144° Southeast 420 483 15,000 -2,460 Descending Atlanta Center
03:23PM 34.2206 -85.2169 148° Southeast 401 461 13,000 -1,020 Descending Atlanta Center
03:24PM 34.1506 -85.1231 132° Southeast 384 442 13,000  Level Atlanta Center
03:25PM 34.0950 -85.0372 128° Southeast 347 399 13,000 -420 Level Atlanta Center
03:26PM 34.0392 -84.9614 132° Southeast 318 366 12,200 -1,200 Descending Atlanta Center
03:27PM 33.9600 -84.9428 169° South 283 326 10,600 -1,560 Descending Atlanta Center
03:28PM 33.8767 -84.9419 180° South 278 320 9,100 -840 Descending Atlanta Center
03:29PM 33.7953 -84.9336 175° South 291 335 9,000 -600 Descending Atlanta Center
03:30PM 33.7158 -84.9278 177° South 291 335 7,900 -1,020 Descending Atlanta Center
03:31PM 33.6556 -84.8872 151° Southeast 276 318 7,000 -840 Descending Atlanta Center
03:32PM 33.6333 -84.8167 111° Southeast 277 319 6,600 -900 Descending Atlanta TRACON
03:33PM 33.6333 -84.7333 90° East 267 307 5,600 -1,200 Descending Atlanta TRACON
03:34PM 33.6333 -84.6500 90° East 245 282 4,300 -1,260 Descending Atlanta TRACON
03:35PM 33.6333 -84.5833 90° East 218 251 3,100 -1,140 Descending Atlanta TRACON
03:36PM 33.6333 -84.5167 90° East 181 208 2,100 -900 Descending Atlanta TRACON
03:37PM 33.6333 -84.4667 90° East 142 163 1,400 -720 Descending Atlanta TRACON
03:39PM 33.6367 -84.4279 North  Level Estimated
03:46PM 33.6367 -84.4279 North  Level Estimated